Flight Track Log - Related Links

Times and Time Zones

All times are in EDT time to prevent confusion due to time zone crossing. See the SWA1725 flight status page for this flight to view local times or setup timezone preferences in your user account.

Time Position Orientation Groundspeed Altitude Reporting Facility
EDT Latitude Longitude Course Direction KTS MPH feet Rate Location/Type
Fri 09:57:43 PM 41.7500 -87.7833 185° South 179 206 3,100  Level Chicago TRACON
Fri 09:59:56 PM 41.6042 -87.8214 191° South 257 296 9,200 3,169 Climbing Chicago Center
Fri 10:00:58 PM 41.5044 -87.8528 193° South 315 362 13,400 3,871 Climbing Chicago Center
Fri 10:02:00 PM 41.4111 -87.8792 192° South 338 389 17,200 3,610 Climbing Chicago Center
Fri 10:03:00 PM 41.2651 -87.8798 185° South  Level FlightAware
Fri 10:03:01 PM 41.3083 -87.8875 183° South 363 418 20,800  Level Chicago Center
Fri 10:04:02 PM 41.2019 -87.8919 182° South 379 436 23,700 2,634 Climbing Chicago Center
Fri 10:05:04 PM 41.0889 -87.8878 178° South 403 464 26,200 2,371 Climbing Chicago Center
Fri 10:06:06 PM 40.9731 -87.8842 179° South 413 475 28,600 2,213 Climbing Chicago Center
Fri 10:07:06 PM 40.8539 -87.8817 179° South 427 491 30,700 2,262 Climbing Chicago Center
Fri 10:08:08 PM 40.7347 -87.8778 179° South 429 494 33,200 2,390 Climbing Chicago Center
Fri 10:09:09 PM 40.6192 -87.8736 178° South 417 480 35,600 1,512 Climbing Chicago Center
Fri 10:10:11 PM 40.5036 -87.8703 179° South 417 480 36,300 1,220 Climbing Chicago Center
Fri 10:11:12 PM 40.3572 -87.8664 179° South 439 505 38,100 1,700 Climbing Chicago Center
Fri 10:12:11 PM 40.2400 -87.8608 178° South 429 494 39,700 1,300 Climbing Indianapolis Center
Fri 10:13:12 PM 40.1211 -87.8450 174° South 430 495 40,700 639 Climbing Indianapolis Center
Fri 10:14:13 PM 40.0028 -87.8217 171° South 430 495 41,000 148 Climbing Indianapolis Center
Fri 10:15:14 PM 39.8858 -87.7975 171° South 428 493 41,000  Level Indianapolis Center
Fri 10:16:15 PM 39.7697 -87.7756 172° South 424 488 41,000  Level Indianapolis Center
Fri 10:17:16 PM 39.6528 -87.7544 172° South 422 486 41,000  Level Indianapolis Center
Fri 10:18:17 PM 39.5369 -87.7347 173° South 419 482 41,000  Level Indianapolis Center
Fri 10:19:17 PM 39.4217 -87.7133 172° South 417 480 41,000  Level Indianapolis Center
Fri 10:20:18 PM 39.3056 -87.6939 173° South 417 480 41,000  Level Indianapolis Center
Fri 10:21:19 PM 39.1906 -87.6728 172° South 417 480 41,000  Level Indianapolis Center
Fri 10:22:20 PM 39.0744 -87.6525 172° South 419 482 41,000  Level Indianapolis Center
Fri 10:23:21 PM 38.9569 -87.6322 172° South 424 488 41,000  Level Indianapolis Center
Fri 10:24:22 PM 38.8403 -87.6117 172° South 423 487 41,000  Level Indianapolis Center
Fri 10:25:23 PM 38.7225 -87.5922 173° South 425 489 41,000  Level Indianapolis Center
Fri 10:26:24 PM 38.6044 -87.5714 172° South 427 491 41,000  Level Indianapolis Center
Fri 10:27:25 PM 38.4858 -87.5497 172° South 429 494 41,000  Level Indianapolis Center
Fri 10:28:26 PM 38.3683 -87.5306 173° South 428 493 41,000  Level Indianapolis Center
Fri 10:29:27 PM 38.2278 -87.5067 172° South 429 494 41,000  Level Indianapolis Center
Fri 10:30:28 PM 38.1092 -87.4867 172° South 431 496 41,000  Level Indianapolis Center
Fri 10:31:29 PM 37.9894 -87.4647 172° South 434 499 41,000  Level Indianapolis Center
Fri 10:32:30 PM 37.8708 -87.4447 172° South 432 497 41,000  Level Indianapolis Center
Fri 10:33:31 PM 37.7614 -87.4275 173° South 431 496 41,000  Level Indianapolis Center
Fri 10:34:32 PM 37.6219 -87.4044 173° South 429 494 41,000  Level Indianapolis Center
Fri 10:35:33 PM 37.5019 -87.3833 172° South 430 495 41,000  Level Indianapolis Center
Fri 10:36:34 PM 37.3808 -87.3631 172° South 434 499 41,000  Level Indianapolis Center
Fri 10:37:34 PM 37.2572 -87.3431 173° South 435 501 41,000  Level Indianapolis Center
Fri 10:38:36 PM 37.1392 -87.3219 172° South 435 501 41,000  Level Indianapolis Center
Fri 10:39:36 PM 37.0189 -87.2900 168° South 442 509 41,000 -422 Level Indianapolis Center
Fri 10:40:44 PM 36.8950 -87.2517 166° South 432 497 40,100 -844 Descending Memphis Center
Fri 10:41:44 PM 36.7753 -87.2175 167° South 437 503 39,200 -550 Descending Memphis Center
Fri 10:42:44 PM 36.6600 -87.1833 167° South 431 496 39,000 -100 Descending Memphis Center
Fri 10:43:44 PM 36.5444 -87.1489 167° South 431 496 39,000 -100 Level Memphis Center
Fri 10:44:44 PM 36.4267 -87.1150 167° South 431 496 38,800 -600 Descending Memphis Center
Fri 10:45:44 PM 36.3092 -87.0836 168° South 431 496 37,800 -900 Descending Memphis Center
Fri 10:46:44 PM 36.1936 -87.0472 166° South 431 496 37,000 -400 Descending Memphis Center
Fri 10:47:44 PM 36.0883 -87.0128 165° South 413 475 37,000 -200 Level Memphis Center
Fri 10:48:44 PM 35.9792 -86.9814 167° South 408 470 36,600 -700 Descending Memphis Center
Fri 10:49:44 PM 35.8678 -86.9475 166° South 403 464 35,600 -593 Descending Memphis Center
Fri 10:51:26 PM 35.6747 -86.8892 166° South 419 482 35,000 -222 Descending Atlanta Center
Fri 10:52:26 PM 35.5631 -86.8572 167° South 424 488 35,000  Level Atlanta Center
Fri 10:53:26 PM 35.4489 -86.8228 166° South 424 488 35,000  Level Atlanta Center
Fri 10:54:26 PM 35.3286 -86.7881 167° South 418 481 35,000  Level Atlanta Center
Fri 10:55:26 PM 35.2169 -86.7539 166° South 418 481 35,000 -941 Level Atlanta Center
Fri 10:56:08 PM 35.1442 -86.7333 167° South 415 478 33,400 -2,680 Descending Memphis Center
Fri 10:57:09 PM 35.0286 -86.7003 167° South 415 478 30,400 -3,050 Descending Memphis Center
Fri 10:58:08 PM 34.9128 -86.6650 166° South 421 484 27,300 -2,924 Descending Memphis Center
Fri 10:59:08 PM 34.8011 -86.6344 167° South 422 486 24,600 -2,300 Descending Memphis Center
Fri 11:00:08 PM 34.6881 -86.6142 172° South 416 479 22,700 -1,400 Descending Memphis Center
Fri 11:01:08 PM 34.5819 -86.6289 187° South 405 466 21,800 -1,000 Descending Memphis Center
Fri 11:02:08 PM 34.4739 -86.6411 185° South 399 459 20,700 -1,050 Descending Memphis Center
Fri 11:03:08 PM 34.3575 -86.6564 186° South 394 453 19,700 -1,655 Descending Memphis Center
Fri 11:05:02 PM 34.1708 -86.6775 185° South 378 435 15,900 -2,160 Descending Atlanta Center
Fri 11:06:03 PM 34.0706 -86.6894 186° South 372 428 13,400 -2,551 Descending Atlanta Center
Fri 11:07:09 PM 33.9586 -86.7411 201° Southwest 338 389 10,500 -1,805 Descending Atlanta Center
Fri 11:08:16 PM 33.8722 -86.7783 200° South 293 337 9,400 -1,274 Descending Atlanta Center
Fri 11:09:02 PM 33.8178 -86.7967 196° South 323 372 8,100 -1,967 Descending Atlanta Center
Fri 11:09:17 PM 33.7881 -86.8108 202° Southwest 298 343 7,400 -1,900 Descending Atlanta Center
Fri 11:10:02 PM 33.7417 -86.8292 198° South 309 356 6,200 -1,700 Descending Atlanta Center
Fri 11:10:17 PM 33.7161 -86.8558 221° Southwest 296 341 5,700 -1,500 Descending Atlanta Center
Fri 11:11:02 PM 33.6758 -86.8844 211° Southwest 295 339 4,700 -1,522 Descending Atlanta Center
Fri 11:11:24 PM 33.6461 -86.9108 216° Southwest 256 295 4,000 -600 Descending Atlanta Center
Fri 11:12:02 PM 33.6206 -86.9300 212° Southwest 270 311 4,100  Climbing Atlanta Center
Fri 11:12:24 PM 33.5950 -86.9542 218° Southwest 211 243 4,000 -273 Descending Atlanta Center

Login

Don't have an account? Register now (free) for customized features, flight alerts, and more!